Time;durP1;ratioP1;P1;durP2;ratioP2;P2;SDS_P1;SDS_P2;PMS_P1;PMS_P2;Temp;Humidity;BMP_temperature;BMP_pressure;BME280_temperature;BME280_humidity;BME280_pressure;Samples;Min_cycle;Max_cycle;Signal;HPM_P1;HPM_P2
2021/06/01 00:02:21;;;;;;;3.50;3.30;;;13.10;37.40;;;;;;5059776;28;20265;-78
2021/06/01 00:04:48;;;;;;;3.42;3.13;;;13.10;37.70;;;;;;5060238;28;20217;-79
2021/06/01 00:07:14;;;;;;;4.43;3.85;;;13.10;37.90;;;;;;5061653;28;20233;-80
2021/06/01 00:09:42;;;;;;;3.40;3.10;;;13.00;38.00;;;;;;5070619;28;20213;-79
2021/06/01 00:12:09;;;;;;;3.28;2.97;;;12.90;38.00;;;;;;5072134;28;20298;-79
2021/06/01 00:14:36;;;;;;;3.58;3.25;;;12.90;38.30;;;;;;5076093;28;20229;-79
2021/06/01 00:17:03;;;;;;;5.57;3.83;;;12.90;38.40;;;;;;5072464;28;20207;-78
2021/06/01 00:19:30;;;;;;;3.20;2.92;;;12.90;38.20;;;;;;5064895;28;20733;-79
2021/06/01 00:21:56;;;;;;;3.60;3.30;;;12.90;39.20;;;;;;5060829;28;20216;-79
2021/06/01 00:24:23;;;;;;;4.05;3.38;;;12.80;38.50;;;;;;5067803;28;20234;-79
2021/06/01 00:26:51;;;;;;;6.43;3.10;;;12.80;38.70;;;;;;5058188;28;20583;-80
2021/06/01 00:29:17;;;;;;;4.43;3.35;;;12.90;38.50;;;;;;5058070;28;20214;-79
2021/06/01 00:31:44;;;;;;;3.90;3.60;;;12.90;38.30;;;;;;5057507;28;20242;-80
2021/06/01 00:34:10;;;;;;;3.72;3.35;;;12.90;38.20;;;;;;5057961;28;20294;-80
2021/06/01 00:36:37;;;;;;;4.25;3.83;;;12.70;38.40;;;;;;5058043;28;20238;-79
2021/06/01 00:39:04;;;;;;;3.75;3.40;;;12.70;38.60;;;;;;5055515;28;20265;-77
2021/06/01 00:41:30;;;;;;;3.65;3.35;;;12.60;39.30;;;;;;5056698;28;20614;-79
2021/06/01 00:44:01;;;;;;;3.83;3.53;;;12.70;39.30;;;;;;5056499;28;20269;-78
2021/06/01 00:46:27;;;;;;;3.95;3.58;;;12.70;38.70;;;;;;5060026;28;20211;-79
2021/06/01 00:48:53;;;;;;;3.78;3.47;;;12.70;39.00;;;;;;5058229;28;20238;-78
2021/06/01 00:51:20;;;;;;;5.43;3.10;;;12.50;39.10;;;;;;5057519;28;20238;-79
2021/06/01 00:53:47;;;;;;;4.15;3.50;;;12.50;39.40;;;;;;5058790;28;20260;-79
2021/06/01 00:56:13;;;;;;;4.53;3.15;;;12.50;39.70;;;;;;5056909;28;20246;-78
2021/06/01 00:58:40;;;;;;;3.85;3.20;;;12.40;39.70;;;;;;5056923;28;20234;-78
2021/06/01 01:01:19;;;;;;;3.08;2.78;;;12.30;40.30;;;;;;5056091;28;20242;-77
2021/06/01 01:03:46;;;;;;;4.13;3.70;;;12.40;40.20;;;;;;5055942;28;20237;-80
2021/06/01 01:06:22;;;;;;;4.32;3.92;;;12.40;40.10;;;;;;5055625;28;20290;-79
2021/06/01 01:08:52;;;;;;;4.10;3.10;;;12.40;39.90;;;;;;5055299;28;20206;-78
2021/06/01 01:11:28;;;;;;;3.45;3.15;;;12.50;39.70;;;;;;5055580;28;20616;-78
2021/06/01 01:13:59;;;;;;;4.22;3.70;;;12.40;39.80;;;;;;5055288;28;20333;-77
2021/06/01 01:16:29;;;;;;;3.80;3.50;;;12.40;40.00;;;;;;5056287;28;20202;-78
2021/06/01 01:19:00;;;;;;;5.03;3.35;;;12.40;40.10;;;;;;5070576;28;20222;-80
2021/06/01 01:21:31;;;;;;;3.53;3.22;;;12.40;40.10;;;;;;5060631;28;20230;-79
2021/06/01 01:24:14;;;;;;;3.67;3.38;;;12.40;40.70;;;;;;5077082;28;20246;-78
2021/06/01 01:26:53;;;;;;;4.57;3.70;;;12.30;39.80;;;;;;5066126;28;20209;-78
2021/06/01 01:29:23;;;;;;;3.85;3.55;;;12.20;41.60;;;;;;5061681;28;20206;-79
2021/06/01 01:31:55;;;;;;;3.60;3.30;;;12.00;41.40;;;;;;5063856;28;20210;-80
2021/06/01 01:34:24;;;;;;;4.88;3.80;;;11.90;42.00;;;;;;5064472;28;20329;-78
2021/06/01 01:36:51;;;;;;;3.85;3.55;;;11.90;42.00;;;;;;5058555;28;20202;-79
2021/06/01 01:39:18;;;;;;;3.95;3.30;;;11.90;41.30;;;;;;5057076;28;20317;-79
2021/06/01 01:41:46;;;;;;;6.32;3.25;;;11.90;41.30;;;;;;5058943;28;20219;-79
2021/06/01 01:44:16;;;;;;;3.70;3.40;;;11.90;41.30;;;;;;5076152;28;20210;-81
2021/06/01 01:47:04;;;;;;;3.40;3.10;;;12.00;41.40;;;;;;5075738;28;20199;-77
2021/06/01 01:49:32;;;;;;;5.07;3.08;;;12.00;41.40;;;;;;5074244;28;20216;-78
2021/06/01 01:52:00;;;;;;;4.18;3.78;;;12.00;41.40;;;;;;5074472;28;20214;-79
2021/06/01 01:54:29;;;;;;;3.30;3.10;;;12.00;41.40;;;;;;5066962;28;20269;-79
2021/06/01 01:57:06;;;;;;;3.78;3.10;;;12.00;41.40;;;;;;5061486;28;20242;-79
2021/06/01 01:59:34;;;;;;;4.05;3.65;;;11.90;41.30;;;;;;5059192;28;20222;-79
2021/06/01 02:02:01;;;;;;;4.65;3.53;;;11.90;41.30;;;;;;5057548;28;20206;-79
2021/06/01 02:04:30;;;;;;;3.67;3.35;;;11.70;41.90;;;;;;5060309;28;20230;-79
2021/06/01 02:06:59;;;;;;;3.72;3.42;;;11.60;42.80;;;;;;5059788;28;20241;-79
2021/06/01 02:09:26;;;;;;;3.83;3.53;;;11.50;43.20;;;;;;5058602;28;20632;-78
2021/06/01 02:11:52;;;;;;;3.55;3.25;;;11.50;43.80;;;;;;5057666;28;20594;-78
2021/06/01 02:14:20;;;;;;;4.35;3.95;;;11.40;43.80;;;;;;5061467;28;20242;-79
2021/06/01 02:16:47;;;;;;;4.10;3.70;;;11.30;44.60;;;;;;5060005;28;20206;-79
2021/06/01 02:19:15;;;;;;;3.75;3.45;;;11.30;44.60;;;;;;5055326;28;20715;-79
2021/06/01 02:22:01;;;;;;;4.15;3.75;;;11.20;45.00;;;;;;5054036;28;20257;-79
2021/06/01 02:24:31;;;;;;;4.07;3.55;;;11.20;45.50;;;;;;5053925;28;20207;-79
2021/06/01 02:27:11;;;;;;;4.00;3.70;;;11.10;46.10;;;;;;5054783;28;20260;-79
2021/06/01 02:29:42;;;;;;;4.35;3.92;;;11.00;47.10;;;;;;5060941;28;20240;-79
2021/06/01 02:32:10;;;;;;;4.85;4.32;;;11.00;48.10;;;;;;5072149;28;20309;-79
2021/06/01 02:34:39;;;;;;;4.53;4.10;;;10.90;48.90;;;;;;5068459;28;20234;-79
2021/06/01 02:37:06;;;;;;;4.70;4.20;;;10.80;50.00;;;;;;5068471;28;20238;-79
2021/06/01 02:39:35;;;;;;;4.45;4.05;;;10.80;49.90;;;;;;5069900;28;20250;-78
2021/06/01 02:42:03;;;;;;;4.22;3.83;;;10.80;50.00;;;;;;5070348;28;20218;-77
2021/06/01 02:44:30;;;;;;;5.40;4.03;;;10.80;49.30;;;;;;5088110;22;20253;-76
2021/06/01 02:46:57;;;;;;;4.45;4.05;;;10.70;49.90;;;;;;5070564;28;20237;-76
2021/06/01 02:49:24;;;;;;;4.30;3.90;;;10.70;49.50;;;;;;5075258;28;20194;-77
2021/06/01 02:51:53;;;;;;;4.05;3.72;;;10.80;48.90;;;;;;5075199;28;20191;-76
2021/06/01 02:54:21;;;;;;;4.95;4.07;;;10.70;49.70;;;;;;5063186;28;20758;-76
2021/06/01 02:56:50;;;;;;;3.80;3.50;;;10.60;49.70;;;;;;5058960;28;20230;-75
2021/06/01 02:59:18;;;;;;;4.90;4.50;;;10.60;49.80;;;;;;5057978;28;20260;-76
2021/06/01 03:01:48;;;;;;;4.43;4.03;;;10.50;49.70;;;;;;5057922;28;20249;-76
2021/06/01 03:04:14;;;;;;;6.10;5.05;;;10.60;49.80;;;;;;5056008;28;20309;-76
2021/06/01 03:06:43;;;;;;;4.25;3.80;;;10.60;49.80;;;;;;5057422;28;20203;-76
2021/06/01 03:09:09;;;;;;;5.32;4.00;;;10.50;49.70;;;;;;5058611;28;20708;-76
2021/06/01 03:11:36;;;;;;;4.97;4.40;;;10.50;50.60;;;;;;5062466;28;20214;-76
2021/06/01 03:14:05;;;;;;;5.03;4.38;;;10.50;50.50;;;;;;5062398;28;20233;-76
2021/06/01 03:16:31;;;;;;;5.05;4.55;;;10.50;51.20;;;;;;5060949;28;20233;-76
2021/06/01 03:18:58;;;;;;;7.20;4.88;;;10.30;51.90;;;;;;5061967;28;20214;-76
2021/06/01 03:21:24;;;;;;;5.82;4.28;;;10.20;52.40;;;;;;5067089;28;20186;-76
2021/06/01 03:23:53;;;;;;;4.82;4.43;;;10.20;53.10;;;;;;5076051;28;20275;-78
2021/06/01 03:26:19;;;;;;;8.15;5.47;;;10.10;53.60;;;;;;5071418;28;20264;-76
2021/06/01 03:28:46;;;;;;;4.82;4.43;;;10.10;53.80;;;;;;5065226;28;20214;-76
2021/06/01 03:31:14;;;;;;;4.20;3.90;;;10.00;54.00;;;;;;5069589;28;20240;-77
2021/06/01 03:33:41;;;;;;;9.48;4.70;;;10.10;54.30;;;;;;5054425;28;20685;-76
2021/06/01 03:36:08;;;;;;;5.80;4.63;;;10.10;54.10;;;;;;5053959;28;20301;-75
2021/06/01 03:38:36;;;;;;;5.15;4.60;;;10.10;54.10;;;;;;5053163;28;20670;-75
2021/06/01 03:41:03;;;;;;;4.70;4.00;;;10.10;54.20;;;;;;5052890;28;20317;-76
2021/06/01 03:43:30;;;;;;;5.05;4.55;;;10.10;54.10;;;;;;5056199;28;20241;-76
2021/06/01 03:45:57;;;;;;;6.28;4.53;;;10.10;54.10;;;;;;5057694;28;20238;-75
2021/06/01 03:48:25;;;;;;;7.03;4.43;;;10.10;54.10;;;;;;5057859;28;20279;-76
2021/06/01 03:50:52;;;;;;;5.63;4.93;;;10.20;53.90;;;;;;5064138;28;20570;-75
2021/06/01 03:53:18;;;;;;;4.57;4.18;;;10.20;53.80;;;;;;5061566;28;20315;-76
2021/06/01 03:55:45;;;;;;;5.22;4.32;;;10.20;53.50;;;;;;5057549;28;20202;-76
2021/06/01 03:58:11;;;;;;;7.38;4.97;;;10.30;53.40;;;;;;5058052;28;20206;-77
2021/06/01 04:00:38;;;;;;;4.32;3.92;;;10.30;53.20;;;;;;5062536;28;20242;-74
2021/06/01 04:03:04;;;;;;;4.78;4.38;;;10.30;53.40;;;;;;5061086;28;20214;-75
2021/06/01 04:05:32;;;;;;;4.63;4.18;;;10.40;53.10;;;;;;5060540;28;20218;-76
2021/06/01 04:07:59;;;;;;;6.50;4.55;;;10.40;52.90;;;;;;5057031;28;20210;-75
2021/06/01 04:10:25;;;;;;;4.60;4.20;;;10.50;52.10;;;;;;5062450;28;20210;-76
2021/06/01 04:12:52;;;;;;;5.50;4.90;;;10.60;51.50;;;;;;5058132;28;20242;-75
2021/06/01 04:15:18;;;;;;;4.68;4.25;;;10.60;51.50;;;;;;5058374;28;20745;-75
2021/06/01 04:17:45;;;;;;;4.45;4.00;;;10.60;51.30;;;;;;5059184;28;20264;-75
2021/06/01 04:20:12;;;;;;;4.50;4.10;;;10.70;50.00;;;;;;5063287;28;20628;-77
2021/06/01 04:22:40;;;;;;;4.70;4.00;;;10.80;50.00;;;;;;5064771;28;20218;-75
2021/06/01 04:25:08;;;;;;;4.20;3.80;;;11.00;50.20;;;;;;5064371;28;20237;-76
2021/06/01 04:27:35;;;;;;;4.32;3.95;;;11.20;48.90;;;;;;5063698;28;20202;-75
2021/06/01 04:30:03;;;;;;;4.75;4.13;;;11.40;47.20;;;;;;5063170;28;20785;-76
2021/06/01 04:32:29;;;;;;;4.00;3.60;;;11.50;46.00;;;;;;5062789;28;20214;-76
2021/06/01 04:34:56;;;;;;;3.60;3.30;;;11.50;45.90;;;;;;5067054;28;20237;-75
2021/06/01 04:37:22;;;;;;;3.72;3.42;;;11.50;45.80;;;;;;5069161;28;20206;-76
2021/06/01 04:39:50;;;;;;;3.80;3.50;;;11.60;45.00;;;;;;5076701;28;20230;-76
2021/06/01 04:42:16;;;;;;;4.20;3.60;;;11.80;44.40;;;;;;5072159;28;20353;-76
2021/06/01 04:44:43;;;;;;;5.00;3.45;;;12.30;43.40;;;;;;5076936;28;20261;-77
2021/06/01 04:47:10;;;;;;;3.50;3.20;;;12.70;42.00;;;;;;5069871;28;20206;-77
2021/06/01 04:49:36;;;;;;;4.55;3.40;;;13.00;41.30;;;;;;5059109;28;20260;-76
2021/06/01 04:52:03;;;;;;;5.70;3.38;;;13.20;39.80;;;;;;5058671;28;20249;-75
2021/06/01 04:54:30;;;;;;;3.35;3.05;;;13.40;38.70;;;;;;5059445;28;20254;-75
2021/06/01 04:56:57;;;;;;;3.70;3.35;;;14.20;37.30;;;;;;5057966;28;20234;-77
2021/06/01 04:59:24;;;;;;;4.37;3.80;;;14.90;35.40;;;;;;5054902;28;20218;-75
2021/06/01 05:01:50;;;;;;;3.37;3.07;;;15.20;34.30;;;;;;5054690;28;20523;-75
2021/06/01 05:04:17;;;;;;;3.20;2.90;;;15.30;34.40;;;;;;5055569;28;20556;-77
2021/06/01 05:06:43;;;;;;;3.20;3.00;;;15.60;34.70;;;;;;5054870;28;20453;-76
2021/06/01 05:09:09;;;;;;;3.53;3.23;;;15.40;34.50;;;;;;5054215;28;20446;-76
2021/06/01 05:11:36;;;;;;;6.20;3.90;;;15.80;33.90;;;;;;5054177;28;20515;-76
2021/06/01 05:14:06;;;;;;;5.50;3.43;;;16.20;31.20;;;;;;5053904;28;20473;-76
2021/06/01 05:16:34;;;;;;;3.20;3.00;;;16.30;31.00;;;;;;5054150;28;20495;-76
2021/06/01 05:19:01;;;;;;;3.97;3.57;;;16.10;32.10;;;;;;5052973;28;20463;-76
2021/06/01 05:21:27;;;;;;;4.30;3.90;;;16.20;31.40;;;;;;5054351;28;20460;-76
2021/06/01 05:23:53;;;;;;;3.30;3.00;;;16.20;30.80;;;;;;5053269;28;20459;-76
2021/06/01 05:26:20;;;;;;;3.73;3.13;;;15.80;32.50;;;;;;5054070;28;20505;-75
2021/06/01 05:28:47;;;;;;;3.70;3.40;;;15.80;32.30;;;;;;5053245;28;20923;-75
2021/06/01 05:31:18;;;;;;;3.93;3.57;;;16.30;30.90;;;;;;5053666;28;20450;-75
2021/06/01 05:33:48;;;;;;;3.50;3.20;;;16.30;30.70;;;;;;5054529;28;20454;-75
2021/06/01 05:36:14;;;;;;;3.57;3.27;;;16.80;30.00;;;;;;5055570;28;20480;-76
2021/06/01 05:38:41;;;;;;;3.10;2.60;;;17.40;29.00;;;;;;5057013;28;20438;-75
2021/06/01 05:41:07;;;;;;;3.57;3.27;;;17.50;28.60;;;;;;5065230;28;20503;-76
2021/06/01 05:43:34;;;;;;;3.47;3.17;;;17.70;28.50;;;;;;5058253;28;20440;-77
2021/06/01 05:46:01;;;;;;;3.70;3.40;;;18.60;27.90;;;;;;5062877;28;20461;-77
2021/06/01 05:48:29;;;;;;;3.63;3.33;;;18.60;27.70;;;;;;5057315;28;20452;-77
2021/06/01 05:50:56;;;;;;;3.17;2.97;;;17.70;28.40;;;;;;5064043;28;20446;-77
2021/06/01 05:53:24;;;;;;;5.67;3.30;;;17.80;28.70;;;;;;5073032;28;20441;-76
2021/06/01 05:55:53;;;;;;;3.27;2.70;;;17.90;27.70;;;;;;5073021;28;20453;-76
2021/06/01 05:58:20;;;;;;;3.43;3.10;;;17.70;27.60;;;;;;5069316;28;20438;-76
2021/06/01 06:00:47;;;;;;;2.87;2.67;;;17.30;28.40;;;;;;5058651;28;20463;-75
2021/06/01 06:03:14;;;;;;;3.53;3.00;;;17.20;29.10;;;;;;5058996;28;20594;-75
2021/06/01 06:05:42;;;;;;;3.03;2.70;;;18.20;27.60;;;;;;5058505;28;20465;-75
2021/06/01 06:08:10;;;;;;;2.80;2.60;;;18.60;27.10;;;;;;5056717;28;20449;-75
2021/06/01 06:10:37;;;;;;;3.33;3.03;;;18.50;27.80;;;;;;5056619;28;20427;-75
2021/06/01 06:13:05;;;;;;;4.80;2.50;;;18.80;27.20;;;;;;5057366;28;20520;-75
2021/06/01 06:15:32;;;;;;;3.30;2.90;;;18.70;27.60;;;;;;5060340;28;20501;-76
2021/06/01 06:18:06;;;;;;;2.73;2.53;;;18.70;27.30;;;;;;5060582;28;20954;-76
2021/06/01 06:20:34;;;;;;;3.30;3.00;;;18.70;27.40;;;;;;5061766;28;20551;-76
2021/06/01 06:23:02;;;;;;;3.60;3.00;;;18.70;27.20;;;;;;5059093;28;20432;-75
2021/06/01 06:25:28;;;;;;;2.93;2.73;;;19.10;26.50;;;;;;5060727;28;20502;-76
2021/06/01 06:27:55;;;;;;;3.40;3.10;;;18.90;26.90;;;;;;5056179;28;20515;-75
2021/06/01 06:30:23;;;;;;;3.03;2.83;;;19.50;25.40;;;;;;5058299;28;20460;-75
2021/06/01 06:32:50;;;;;;;3.10;2.63;;;19.30;26.20;;;;;;5057236;28;20488;-75
2021/06/01 06:35:16;;;;;;;2.47;2.27;;;19.10;26.00;;;;;;5056469;28;20534;-75
2021/06/01 06:37:43;;;;;;;2.83;2.63;;;18.90;26.40;;;;;;5054609;28;20875;-75
2021/06/01 06:40:11;;;;;;;3.20;2.87;;;18.60;27.10;;;;;;5054165;28;20502;-75
2021/06/01 06:42:38;;;;;;;3.33;3.13;;;18.70;27.10;;;;;;5056310;28;20492;-75
2021/06/01 06:45:07;;;;;;;3.27;2.97;;;18.70;27.00;;;;;;5055050;28;20479;-76
2021/06/01 06:47:43;;;;;;;2.87;2.63;;;19.30;26.30;;;;;;5057021;28;20487;-76
2021/06/01 06:50:11;;;;;;;3.57;2.40;;;19.10;26.60;;;;;;5058901;28;20444;-76
2021/06/01 06:52:38;;;;;;;2.47;2.27;;;19.60;25.20;;;;;;5060842;28;20789;-76
2021/06/01 06:55:07;;;;;;;4.70;2.77;;;19.10;26.20;;;;;;5056374;28;20482;-76
2021/06/01 06:57:35;;;;;;;2.80;2.60;;;18.80;26.30;;;;;;5058152;28;20485;-75
2021/06/01 07:00:03;;;;;;;3.87;2.67;;;18.80;27.30;;;;;;5071802;28;20481;-75
2021/06/01 07:02:30;;;;;;;2.63;2.40;;;18.90;26.90;;;;;;5063376;28;20447;-76
2021/06/01 07:04:56;;;;;;;5.60;2.13;;;18.30;27.70;;;;;;5069312;28;20657;-75
2021/06/01 07:07:23;;;;;;;3.07;2.77;;;18.20;27.60;;;;;;5062988;28;20998;-76
2021/06/01 07:09:49;;;;;;;2.37;2.27;;;18.10;27.50;;;;;;5052557;28;20518;-75
2021/06/01 07:12:16;;;;;;;3.23;2.60;;;18.30;26.60;;;;;;5053039;28;20522;-77
2021/06/01 07:14:57;;;;;;;2.47;2.33;;;18.30;26.10;;;;;;5053935;28;20476;-76
2021/06/01 07:17:24;;;;;;;2.80;2.50;;;18.30;26.80;;;;;;5056402;28;20476;-74
2021/06/01 07:19:54;;;;;;;3.77;2.70;;;18.50;26.50;;;;;;5052779;28;20467;-76
2021/06/01 07:22:21;;;;;;;3.80;2.70;;;18.80;26.20;;;;;;5054489;28;20435;-76
2021/06/01 07:24:47;;;;;;;2.63;2.43;;;18.80;24.90;;;;;;5057302;28;20475;-75
2021/06/01 07:27:14;;;;;;;3.00;2.70;;;18.80;24.70;;;;;;5061442;28;20453;-75
2021/06/01 07:29:41;;;;;;;4.07;2.90;;;18.70;25.00;;;;;;5056777;28;20933;-75
2021/06/01 07:32:09;;;;;;;3.30;2.50;;;18.70;24.90;;;;;;5057418;28;20431;-77
2021/06/01 07:34:35;;;;;;;3.23;2.40;;;18.80;24.90;;;;;;5060607;28;20506;-76
2021/06/01 07:37:02;;;;;;;3.43;2.20;;;18.90;24.00;;;;;;5058066;28;21018;-76
2021/06/01 07:39:28;;;;;;;4.10;2.17;;;19.00;24.40;;;;;;5055835;28;20532;-76
2021/06/01 07:41:55;;;;;;;2.77;2.47;;;18.90;24.80;;;;;;5056380;28;20420;-77
2021/06/01 07:44:22;;;;;;;3.87;2.47;;;19.00;24.80;;;;;;5055732;28;20487;-76
2021/06/01 07:46:49;;;;;;;4.17;2.60;;;19.20;25.10;;;;;;5056301;28;20543;-76
2021/06/01 07:49:17;;;;;;;4.07;2.50;;;19.50;24.90;;;;;;5056435;28;20467;-75
2021/06/01 07:51:44;;;;;;;4.60;2.37;;;19.40;24.10;;;;;;5056781;28;20481;-76
2021/06/01 07:54:10;;;;;;;2.60;2.40;;;19.20;24.50;;;;;;5056910;28;20538;-75
2021/06/01 07:56:36;;;;;;;4.03;2.60;;;19.30;24.70;;;;;;5056519;28;20453;-75
2021/06/01 07:59:03;;;;;;;4.83;2.50;;;19.50;24.00;;;;;;5055988;28;20515;-76
2021/06/01 08:01:30;;;;;;;2.47;2.27;;;19.60;24.30;;;;;;5057017;28;20637;-76
2021/06/01 08:03:56;;;;;;;3.23;2.93;;;19.70;24.60;;;;;;5057549;28;20509;-76
2021/06/01 08:06:25;;;;;;;5.37;2.40;;;19.80;24.10;;;;;;5057362;28;20431;-76
2021/06/01 08:08:52;;;;;;;5.07;2.63;;;19.90;23.70;;;;;;5056051;28;20428;-75
2021/06/01 08:11:18;;;;;;;2.60;2.40;;;19.90;23.50;;;;;;5056152;28;20511;-75
2021/06/01 08:13:45;;;;;;;2.47;2.27;;;19.90;24.00;;;;;;5056713;28;20471;-76
2021/06/01 08:16:11;;;;;;;3.20;2.83;;;20.00;23.80;;;;;;5056286;28;20503;-76
2021/06/01 08:18:41;;;;;;;4.67;2.87;;;20.00;23.20;;;;;;5055963;28;20515;-76
2021/06/01 08:21:09;;;;;;;3.03;2.73;;;20.00;23.60;;;;;;5058660;28;20728;-76
2021/06/01 08:23:37;;;;;;;3.30;2.80;;;20.10;23.20;;;;;;5056805;28;20504;-75
2021/06/01 08:26:04;;;;;;;4.20;2.47;;;20.20;23.10;;;;;;5055663;28;20423;-76
2021/06/01 08:28:33;;;;;;;3.10;2.30;;;20.20;22.60;;;;;;5054692;28;20420;-76
2021/06/01 08:30:59;;;;;;;2.73;2.53;;;20.40;23.00;;;;;;5055269;28;21098;-77
2021/06/01 08:33:25;;;;;;;3.27;2.33;;;20.70;22.30;;;;;;5055885;28;20900;-76
2021/06/01 08:35:52;;;;;;;2.70;2.50;;;20.60;23.20;;;;;;5058091;28;20458;-77
2021/06/01 08:38:21;;;;;;;4.83;2.50;;;20.30;22.50;;;;;;5061046;28;20454;-75
2021/06/01 08:40:51;;;;;;;4.00;3.40;;;20.30;23.10;;;;;;5063883;28;20492;-76
2021/06/01 08:43:24;;;;;;;3.00;2.67;;;20.30;22.80;;;;;;5059574;28;20450;-75
2021/06/01 08:45:52;;;;;;;5.37;2.50;;;20.30;22.60;;;;;;5076446;22;20540;-78
2021/06/01 08:48:19;;;;;;;3.20;2.23;;;20.50;22.30;;;;;;5055470;28;20506;-77
2021/06/01 08:50:50;;;;;;;4.37;2.80;;;20.70;21.80;;;;;;5054850;28;20451;-78
2021/06/01 08:53:18;;;;;;;3.30;3.00;;;20.80;22.10;;;;;;5056540;28;20453;-76
2021/06/01 08:55:46;;;;;;;2.90;2.70;;;21.10;22.00;;;;;;5057958;28;20476;-78
2021/06/01 08:58:15;;;;;;;3.17;2.80;;;21.10;22.20;;;;;;5059465;28;20457;-78
2021/06/01 09:00:42;;;;;;;2.67;2.47;;;21.40;21.70;;;;;;5075626;28;20493;-78
2021/06/01 09:03:11;;;;;;;6.93;3.27;;;21.10;22.10;;;;;;5073945;28;20459;-79
2021/06/01 09:05:58;;;;;;;4.47;3.07;;;20.80;21.60;;;;;;5069033;28;20477;-78
2021/06/01 09:08:37;;;;;;;3.53;2.63;;;20.80;21.70;;;;;;5062474;28;20550;-78
2021/06/01 09:11:10;;;;;;;2.97;2.77;;;20.90;21.30;;;;;;5057273;28;20426;-77
2021/06/01 09:21:59;;;;;;;6.53;2.47;;;21.10;20.30;;;;;;5055914;28;20488;-78
2021/06/01 09:24:25;;;;;;;3.00;2.70;;;21.40;20.30;;;;;;5064494;28;20465;-77
2021/06/01 09:26:59;;;;;;;2.87;2.67;;;21.60;20.00;;;;;;5055225;28;20570;-77
2021/06/01 09:29:29;;;;;;;7.57;2.47;;;21.60;19.60;;;;;;5059981;28;20432;-79
2021/06/01 09:32:21;;;;;;;2.63;2.43;;;21.90;19.40;;;;;;5066857;28;20433;-80
2021/06/01 09:34:54;;;;;;;4.30;2.83;;;21.60;18.90;;;;;;5054312;28;20454;-77
2021/06/01 09:37:23;;;;;;;2.90;2.50;;;21.30;18.70;;;;;;5073789;28;20941;-78
2021/06/01 09:40:09;;;;;;;2.73;2.47;;;21.40;18.70;;;;;;5066263;28;20506;-80
2021/06/01 09:42:38;;;;;;;3.30;3.00;;;21.70;19.10;;;;;;5064924;28;20928;-78
2021/06/01 09:45:09;;;;;;;11.93;2.80;;;21.70;18.30;;;;;;5063311;28;20455;-77
2021/06/01 09:47:53;;;;;;;3.93;2.47;;;21.80;18.10;;;;;;5055337;28;20488;-78
2021/06/01 09:50:27;;;;;;;3.97;2.73;;;21.80;17.70;;;;;;5055317;28;20610;-77
2021/06/01 09:52:56;;;;;;;3.30;2.47;;;22.20;17.10;;;;;;5054257;28;20461;-80
2021/06/01 09:55:30;;;;;;;2.90;2.70;;;22.40;17.60;;;;;;5054519;28;20476;-78
2021/06/01 09:57:58;;;;;;;5.33;2.70;;;22.50;16.90;;;;;;5051654;28;20520;-78
2021/06/01 10:00:27;;;;;;;2.87;2.57;;;22.80;16.50;;;;;;5053744;28;20469;-78
2021/06/01 10:02:57;;;;;;;4.53;2.90;;;22.10;16.80;;;;;;5054200;28;20455;-77
2021/06/01 10:05:25;;;;;;;3.00;2.60;;;21.90;17.40;;;;;;5053766;28;20483;-77
2021/06/01 10:07:53;;;;;;;5.60;2.80;;;22.30;16.70;;;;;;5057591;28;20877;-78
2021/06/01 10:10:22;;;;;;;2.70;2.50;;;22.10;16.20;;;;;;5056172;28;20516;-79
2021/06/01 10:12:50;;;;;;;4.10;2.27;;;22.10;16.70;;;;;;5053423;28;21028;-77
2021/06/01 10:15:19;;;;;;;3.60;2.50;;;22.40;16.20;;;;;;5053565;28;20492;-79
2021/06/01 10:17:48;;;;;;;3.23;2.50;;;22.20;16.30;;;;;;5062712;28;20472;-78
2021/06/01 10:20:14;;;;;;;2.50;2.30;;;22.20;16.40;;;;;;5069934;28;20554;-78
2021/06/01 10:22:45;;;;;;;2.87;2.67;;;22.40;16.30;;;;;;5057915;28;20446;-78
2021/06/01 10:25:13;;;;;;;2.80;2.60;;;22.70;16.10;;;;;;5056194;28;20486;-77
2021/06/01 10:27:40;;;;;;;3.80;2.53;;;22.50;16.50;;;;;;5053489;28;20482;-79
2021/06/01 10:30:09;;;;;;;3.93;2.87;;;22.80;16.00;;;;;;5052816;28;20452;-78
2021/06/01 10:32:41;;;;;;;4.73;2.33;;;22.70;15.70;;;;;;5053915;28;20572;-77
2021/06/01 10:35:14;;;;;;;2.50;2.30;;;22.90;15.80;;;;;;5051822;28;20538;-78
2021/06/01 10:52:22;;;;;;;5.00;3.00;;;23.40;14.60;;;;;;5053373;28;20425;-77
2021/06/01 10:55:07;;;;;;;2.37;2.17;;;23.40;14.70;;;;;;5052387;28;20492;-80
2021/06/01 10:57:59;;;;;;;2.80;2.50;;;23.40;14.00;;;;;;5053419;28;20465;-78
2021/06/01 11:03:14;;;;;;;2.67;2.57;;;23.80;14.90;;;;;;5058712;28;20502;-78
2021/06/01 11:06:04;;;;;;;4.27;2.53;;;23.10;14.40;;;;;;5053672;28;20450;-77
2021/06/01 11:08:37;;;;;;;3.27;2.60;;;23.00;14.30;;;;;;5052382;28;20434;-79
2021/06/01 11:11:25;;;;;;;2.70;2.37;;;23.30;14.50;;;;;;5052970;28;20521;-77
2021/06/01 11:13:52;;;;;;;2.70;2.50;;;23.70;14.10;;;;;;5052700;28;20506;-78
2021/06/01 11:16:18;;;;;;;2.73;2.40;;;23.90;13.80;;;;;;5053343;28;20475;-78
2021/06/01 11:18:49;;;;;;;3.93;2.43;;;23.70;13.70;;;;;;5052048;28;20538;-79
2021/06/01 11:21:27;;;;;;;2.20;2.00;;;23.70;14.80;;;;;;5053029;28;20494;-78
2021/06/01 11:36:02;;;;;;;2.93;2.17;;;23.50;14.00;;;;;;5052982;28;20421;-79
2021/06/01 11:38:40;;;;;;;5.77;2.60;;;23.40;14.00;;;;;;5066180;28;20483;-77
2021/06/01 11:43:54;;;;;;;2.77;2.33;;;23.60;13.90;;;;;;5065236;28;20432;-79
2021/06/01 11:46:31;;;;;;;2.40;2.10;;;23.50;13.00;;;;;;5060748;28;20425;-77
2021/06/01 11:51:45;;;;;;;3.20;2.20;;;23.70;12.50;;;;;;5065699;28;20406;-77
2021/06/01 11:54:15;;;;;;;2.70;2.50;;;23.40;12.30;;;;;;5074747;28;20471;-78
2021/06/01 11:56:57;;;;;;;2.47;2.27;;;23.40;12.50;;;;;;5062967;28;20555;-78
2021/06/01 12:02:16;;;;;;;4.93;2.70;;;23.80;13.10;;;;;;5054830;28;20959;-77
2021/06/01 12:18:54;;;;;;;2.43;1.97;;;23.80;11.90;;;;;;5055540;28;20577;-78
2021/06/01 12:21:22;;;;;;;2.60;2.40;;;23.70;12.40;;;;;;5056843;28;21059;-77
2021/06/01 12:23:52;;;;;;;2.50;2.20;;;23.90;12.80;;;;;;5058127;28;20459;-78
2021/06/01 12:26:22;;;;;;;2.30;2.10;;;24.20;11.30;;;;;;5058606;28;20471;-77
2021/06/01 12:31:59;;;;;;;2.27;2.17;;;24.20;11.90;;;;;;5068970;28;20397;-79
2021/06/01 12:34:36;;;;;;;2.67;2.20;;;24.20;10.80;;;;;;5069962;28;20495;-78
2021/06/01 12:42:55;;;;;;;2.30;2.07;;;24.00;11.40;;;;;;5066586;28;20452;-79
2021/06/01 12:45:37;;;;;;;2.40;2.30;;;24.10;11.30;;;;;;5070516;28;20478;-79
2021/06/01 13:20:03;;;;;;;4.40;2.33;;;24.60;11.20;;;;;;5056758;28;20445;-78
2021/06/01 13:22:46;;;;;;;4.97;2.73;;;24.60;11.10;;;;;;5057543;28;20558;-77
2021/06/01 13:36:53;;;;;;;2.23;2.13;;;24.60;10.20;;;;;;5069931;28;20420;-79
2021/06/01 13:39:37;;;;;;;2.17;1.90;;;25.00;9.80;;;;;;5056832;28;20460;-78
2021/06/01 13:47:49;;;;;;;2.37;2.17;;;25.30;9.40;;;;;;5055451;28;20447;-77
2021/06/01 13:50:24;;;;;;;3.00;1.80;;;25.00;9.80;;;;;;5061147;28;20480;-77
2021/06/01 13:53:05;;;;;;;2.53;2.40;;;25.10;10.20;;;;;;5054939;28;20776;-78
2021/06/01 13:55:36;;;;;;;3.10;2.10;;;25.00;9.40;;;;;;5054841;28;20758;-77
2021/06/01 13:58:25;;;;;;;2.63;2.43;;;25.30;9.20;;;;;;5053984;28;20433;-77
2021/06/01 14:01:01;;;;;;;2.50;2.30;;;25.40;8.50;;;;;;5054061;28;20537;-79
2021/06/01 14:31:21;;;;;;;2.30;2.20;;;25.00;10.50;;;;;;5069095;28;20410;-77
2021/06/01 15:05:27;;;;;;;2.63;2.43;;;25.30;8.20;;;;;;5055283;28;20461;-77
2021/06/01 15:32:56;;;;;;;2.80;2.60;;;25.50;10.70;;;;;;5057629;28;20446;-78
2021/06/01 15:49:22;;;;;;;3.13;2.60;;;25.30;10.90;;;;;;5060525;28;20437;-77
2021/06/01 15:52:05;;;;;;;3.53;2.60;;;25.50;10.70;;;;;;5062306;28;20422;-77
2021/06/01 16:11:30;;;;;;;8.10;2.73;;;25.50;9.80;;;;;;5057347;28;20402;-77
2021/06/01 16:14:03;;;;;;;2.60;2.40;;;25.30;10.20;;;;;;5059232;28;20461;-79
2021/06/01 16:22:26;;;;;;;3.00;2.80;;;25.60;9.90;;;;;;5068231;28;20502;-79
2021/06/01 16:30:32;;;;;;;3.63;2.60;;;26.40;9.30;;;;;;5067097;28;20419;-78
2021/06/01 16:33:20;;;;;;;2.80;2.40;;;26.00;9.10;;;;;;5060409;28;20842;-78
2021/06/01 17:04:04;;;;;;;2.30;2.20;;;26.30;10.00;;;;;;5099436;28;20497;-78
2021/06/01 17:06:39;;;;;;;4.73;2.67;;;26.20;9.60;;;;;;5100233;28;20565;-78
2021/06/01 17:11:49;;;;;;;2.37;2.20;;;26.20;10.10;;;;;;5098409;28;20797;-78
2021/06/01 17:14:22;;;;;;;3.03;2.73;;;26.30;10.10;;;;;;5099278;28;20474;-79
2021/06/01 17:16:50;;;;;;;2.93;2.50;;;26.30;9.20;;;;;;5101173;28;20441;-78
2021/06/01 17:19:46;;;;;;;2.50;2.40;;;26.80;8.50;;;;;;5098250;28;20468;-78
2021/06/01 17:35:56;;;;;;;2.90;2.60;;;26.10;10.10;;;;;;5101155;28;20486;-79
2021/06/01 17:38:22;;;;;;;2.50;2.30;;;26.30;10.20;;;;;;5098105;28;20430;-79
2021/06/01 17:40:53;;;;;;;2.80;2.60;;;25.90;10.20;;;;;;5096546;28;20452;-79
2021/06/01 17:43:25;;;;;;;3.40;2.80;;;25.80;10.70;;;;;;5097904;28;20826;-78
2021/06/01 17:45:55;;;;;;;2.87;2.57;;;26.20;10.30;;;;;;5098131;28;20519;-79
2021/06/01 17:48:35;;;;;;;4.60;2.40;;;26.20;10.30;;;;;;5099816;28;20454;-80
2021/06/01 17:51:07;;;;;;;3.13;2.50;;;26.20;10.50;;;;;;5103311;28;20436;-79